Time;durP1;ratioP1;P1;durP2;ratioP2;P2;SDS_P1;SDS_P2;PMS_P1;PMS_P2;Temp;Humidity;BMP_temperature;BMP_pressure;BME280_temperature;BME280_humidity;BME280_pressure;Samples;Min_cycle;Max_cycle;Signal;HPM_P1;HPM_P2
2021/07/23 13:57:15;;;;;;;;;;;27.70;92.70;;;;;;5122299;27;19951;-46
2021/07/23 13:59:41;;;;;;;;;;;27.90;92.70;;;;;;5121814;28;19912;-45
2021/07/23 14:02:08;;;;;;;;;;;27.90;92.80;;;;;;5121769;28;19904;-44
2021/07/23 14:04:34;;;;;;;;;;;27.90;92.80;;;;;;5121473;28;19982;-44
2021/07/23 14:07:03;;;;;;;;;;;27.90;93.10;;;;;;5121975;28;19963;-49
2021/07/23 14:09:30;;;;;;;;;;;27.80;93.10;;;;;;5121322;28;19912;-43
2021/07/23 14:11:56;;;;;;;;;;;27.90;92.90;;;;;;5121433;28;19915;-50
2021/07/23 14:14:22;;;;;;;;;;;27.90;93.10;;;;;;5121800;28;19912;-50
2021/07/23 14:16:48;;;;;;;;;;;27.90;93.00;;;;;;5121769;28;19904;-41
2021/07/23 14:19:18;;;;;;;;;;;27.90;93.10;;;;;;5121773;28;19911;-47
2021/07/23 14:21:45;;;;;;;;;;;27.90;93.20;;;;;;5121786;28;20096;-42
2021/07/23 14:24:11;;;;;;;;;;;27.90;93.20;;;;;;5121474;28;19935;-47
2021/07/23 14:26:41;;;;;;;;;;;27.90;93.10;;;;;;5121670;28;19912;-40
2021/07/23 14:29:07;;;;;;;;;;;27.90;93.10;;;;;;5121580;28;19949;-43
2021/07/23 14:31:34;;;;;;;;;;;27.90;93.20;;;;;;5120101;28;20042;-53
2021/07/23 14:34:00;;;;;;;;;;;27.90;93.20;;;;;;5120673;28;19947;-41
2021/07/23 14:36:26;;;;;;;;;;;27.90;93.10;;;;;;5120978;28;19931;-42
2021/07/23 14:38:53;;;;;;;;;;;28.00;93.00;;;;;;5121033;28;19904;-42
2021/07/23 14:41:19;;;;;;;;;;;28.00;93.00;;;;;;5121308;28;19957;-52
2021/07/23 14:43:48;;;;;;;;;;;28.10;92.30;;;;;;5120451;28;19908;-40
2021/07/23 14:46:14;;;;;;;;;;;28.10;91.90;;;;;;5103084;28;19940;-47
2021/07/23 14:48:43;;;;;;;;;;;28.20;91.80;;;;;;5100591;28;19940;-50
2021/07/23 14:51:10;;;;;;;;;;;28.20;91.70;;;;;;5101320;28;20172;-50
2021/07/23 15:05:21;;;;;;;;;;;28.20;92.50;;;;;;5077994;28;19941;-50
2021/07/23 15:07:49;;;;;;;;;;;28.70;91.40;;;;;;5076767;28;20163;-49
2021/07/23 15:10:34;;;;;;;;;;;;;;;;;;;;;
2021/07/23 15:13:10;;;;;;;;;;;28.70;91.60;;;;;;5075536;28;19955;-48
2021/07/23 15:15:39;;;;;;;;;;;28.70;90.60;;;;;;5077831;28;19911;-49
2021/07/23 15:18:25;;;;;;;;;;;28.60;90.80;;;;;;5076773;28;19984;-51
2021/07/23 15:21:01;;;;;;;;;;;28.60;91.20;;;;;;5077545;28;20207;-48
2021/07/23 15:23:28;;;;;;;;;;;28.60;91.40;;;;;;5077907;28;19951;-42
2021/07/23 15:26:03;;;;;;;;;;;28.70;91.40;;;;;;5077993;28;19905;-41
2021/07/23 15:28:40;;;;;;;;;;;28.70;91.50;;;;;;5077891;28;19979;-46
2021/07/23 15:31:07;;;;;;;;;;;28.70;91.40;;;;;;5077824;28;19927;-47
2021/07/23 15:34:36;;;;;;;;;;;28.60;91.60;;;;;;5077804;28;19969;-47
2021/07/23 15:36:31;;;;;;;;;;;28.70;91.60;;;;;;5064358;28;19946;-49
2021/07/23 15:39:00;;;;;;;;;;;28.70;91.70;;;;;;5077792;28;20018;-46
2021/07/23 15:41:26;;;;;;;;;;;28.70;90.90;;;;;;5077658;28;19912;-50
2021/07/23 15:43:58;;;;;;;;;;;28.70;91.30;;;;;;5078027;28;19913;-41
2021/07/23 15:46:27;;;;;;;;;;;28.70;91.10;;;;;;5077560;28;19913;-44
2021/07/23 15:49:02;;;;;;;;;;;28.70;90.70;;;;;;5078055;28;19920;-47
2021/07/23 15:51:31;;;;;;;;;;;28.70;91.10;;;;;;5077316;28;19911;-43
2021/07/23 15:56:49;;;;;;;;;;;28.70;90.90;;;;;;5077226;28;19912;-47
2021/07/23 15:59:25;;;;;;;;;;;;;;;;;;;;;
2021/07/23 16:02:04;;;;;;;;;;;;;;;;;;;;;
2021/07/23 16:04:33;;;;;;;;;;;28.70;90.40;;;;;;5071066;28;20168;-41
2021/07/23 16:09:48;;;;;;;;;;;28.70;90.90;;;;;;5063886;28;19936;-43
2021/07/23 16:12:15;;;;;;;;;;;28.80;90.70;;;;;;5063579;28;19912;-45
2021/07/23 16:14:41;;;;;;;;;;;28.80;90.10;;;;;;5062304;28;19946;-49
2021/07/23 16:17:08;;;;;;;;;;;28.80;89.70;;;;;;5063317;28;19921;-40
2021/07/23 16:19:36;;;;;;;;;;;28.80;90.00;;;;;;5051517;28;19951;-49
2021/07/23 16:22:03;;;;;;;;;;;28.80;89.20;;;;;;5043450;28;19909;-44
2021/07/23 16:30:14;;;;;;;;;;;28.90;90.30;;;;;;5043197;28;20123;-41
2021/07/23 16:32:49;;;;;;;;;;;28.90;90.40;;;;;;5043406;28;19917;-40
2021/07/23 16:38:18;;;;;;;5.80;1.50;;;28.90;90.10;;;;;;5163447;27;20324;-40
2021/07/23 16:43:31;;;;;;;;;;;28.90;90.40;;;;;;5163076;27;19940;-49
2021/07/23 16:45:57;;;;;;;;;;;29.00;90.70;;;;;;5163042;27;19905;-40
2021/07/23 16:48:26;;;;;;;;;;;29.00;87.70;;;;;;5163310;27;19899;-43
2021/07/23 16:50:55;;;;;;;;;;;29.00;89.20;;;;;;5161786;27;20005;-41
2021/07/23 16:53:31;;;;;;;;;;;;;;;;;;;;;
2021/07/23 16:55:58;;;;;;;;;;;29.00;90.10;;;;;;5119972;28;19954;-40
2021/07/23 16:58:24;;;;;;;;;;;29.00;90.10;;;;;;5121060;28;19903;-41
2021/07/23 17:00:51;;;;;;;;;;;29.10;90.20;;;;;;5140230;28;19900;-51
2021/07/23 17:03:17;;;;;;;;;;;29.10;90.20;;;;;;5142611;28;19900;-44
2021/07/23 17:05:43;;;;;;;;;;;29.10;90.20;;;;;;5142285;28;19907;-47
2021/07/23 17:08:09;;;;;;;;;;;29.10;90.10;;;;;;5142511;28;20091;-46
2021/07/23 17:10:43;;;;;;;;;;;29.10;90.20;;;;;;5142165;28;19933;-41
2021/07/23 17:13:09;;;;;;;;;;;29.10;90.20;;;;;;5142372;28;19925;-44
2021/07/23 17:15:35;;;;;;;;;;;29.10;90.10;;;;;;5142040;28;20087;-42
2021/07/23 17:18:04;;;;;;;;;;;29.10;90.40;;;;;;5141551;28;19911;-42
2021/07/23 17:20:31;;;;;;;;;;;29.10;90.30;;;;;;5142124;28;19906;-53
2021/07/23 17:23:00;;;;;;;;;;;29.10;90.30;;;;;;5142466;28;20211;-46
2021/07/23 17:25:26;;;;;;;;;;;29.10;90.40;;;;;;5142023;28;19906;-44
2021/07/23 17:27:52;;;;;;;;;;;29.10;90.30;;;;;;5142503;28;19911;-41
2021/07/23 17:30:18;;;;;;;;;;;29.10;90.30;;;;;;5142077;28;19948;-43
2021/07/23 17:35:36;;;;;;;;;;;29.20;90.50;;;;;;5141880;28;19900;-43
2021/07/23 17:38:02;;;;;;;;;;;29.20;90.50;;;;;;5141469;28;19915;-43
2021/07/23 17:40:31;;;;;;;;;;;29.20;89.70;;;;;;5141774;28;20191;-45
2021/07/23 17:42:57;;;;;;;;;;;29.20;90.00;;;;;;5142072;28;19908;-45
2021/07/23 17:48:13;;;;;;;;;;;29.20;90.20;;;;;;5105595;28;19956;-44
2021/07/23 17:50:39;;;;;;;;;;;29.20;90.50;;;;;;5127473;28;20016;-45
2021/07/23 17:53:08;;;;;;;;;;;29.20;90.40;;;;;;5128025;28;19908;-44
2021/07/23 17:55:34;;;;;;;;;;;29.20;90.10;;;;;;5127464;28;19907;-43
2021/07/23 17:58:04;;;;;;;;;;;29.30;90.40;;;;;;5128411;28;19995;-47
2021/07/23 18:00:30;;;;;;;;;;;29.30;90.20;;;;;;5127795;28;20008;-46
2021/07/23 18:03:00;;;;;;;;;;;29.30;90.70;;;;;;5127361;28;19908;-45
2021/07/23 18:05:27;;;;;;;;;;;29.30;90.50;;;;;;5127385;28;19927;-47
2021/07/23 18:07:53;;;;;;;;;;;29.30;90.50;;;;;;5127878;28;19974;-43
2021/07/23 18:10:24;;;;;;;;;;;29.30;90.60;;;;;;5126265;28;19899;-44
2021/07/23 18:12:54;;;;;;;;;;;29.20;90.70;;;;;;5127639;28;20225;-42
2021/07/23 18:15:35;;;;;;;;;;;29.20;90.60;;;;;;5127503;28;19900;-43
2021/07/23 18:18:02;;;;;;;;;;;29.20;90.60;;;;;;5127814;28;19918;-44
2021/07/23 18:20:31;;;;;;;;;;;29.20;90.70;;;;;;5127319;28;20005;-44
2021/07/23 18:22:57;;;;;;;;;;;29.30;90.60;;;;;;5127582;28;19974;-46
2021/07/23 18:25:26;;;;;;;;;;;29.30;90.50;;;;;;5127172;28;19903;-42
2021/07/23 18:27:53;;;;;;;;;;;29.30;90.50;;;;;;5127411;28;19907;-44
2021/07/23 18:30:28;;;;;;;;;;;29.30;90.30;;;;;;5126805;28;19906;-45
2021/07/23 18:32:54;;;;;;;;;;;29.40;90.20;;;;;;5127371;28;19914;-42
2021/07/23 18:35:23;;;;;;;;;;;29.50;89.80;;;;;;5127123;28;19907;-41
2021/07/23 18:37:49;;;;;;;;;;;29.50;90.10;;;;;;5125379;28;19915;-40
2021/07/23 18:40:16;;;;;;;;;;;29.50;90.00;;;;;;5126769;28;19906;-40
2021/07/23 18:42:42;;;;;;;;;;;29.50;88.70;;;;;;5127066;28;19914;-42
2021/07/23 18:45:27;;;;;;;;;;;29.50;88.10;;;;;;5126374;28;19899;-44
2021/07/23 18:47:56;;;;;;;;;;;29.50;88.60;;;;;;5126481;28;19915;-43
2021/07/23 18:50:24;;;;;;;;;;;29.40;89.10;;;;;;5126462;28;19900;-41
2021/07/23 18:52:50;;;;;;;;;;;29.50;89.40;;;;;;5126936;28;19907;-43
2021/07/23 18:55:17;;;;;;;;;;;29.50;89.80;;;;;;5126400;28;19900;-43
2021/07/23 18:57:43;;;;;;;;;;;29.50;89.90;;;;;;5126546;28;19948;-39
2021/07/23 19:00:11;;;;;;;;;;;29.50;90.00;;;;;;5125329;28;19979;-42
2021/07/23 19:02:38;;;;;;;;;;;29.50;89.90;;;;;;5126697;28;19942;-43
2021/07/23 19:05:06;;;;;;;;;;;29.50;89.10;;;;;;5125912;28;19900;-41
2021/07/23 19:07:33;;;;;;;;;;;29.50;88.40;;;;;;5125219;28;19907;-44
2021/07/23 19:09:59;;;;;;;;;;;29.60;89.00;;;;;;5126239;28;19938;-42
2021/07/23 19:12:37;;;;;;;;;;;29.60;88.90;;;;;;5126516;28;19939;-43
2021/07/23 19:15:10;;;;;;;;;;;29.60;88.70;;;;;;5126303;28;19925;-48
2021/07/23 19:17:37;;;;;;;;;;;29.70;88.30;;;;;;5126288;28;19912;-47
2021/07/23 19:20:03;;;;;;;;;;;29.70;89.20;;;;;;5125892;28;19937;-44
2021/07/23 19:22:30;;;;;;;;;;;29.80;89.30;;;;;;5107901;28;19934;-39
2021/07/23 19:25:05;;;;;;;;;;;29.80;88.90;;;;;;5107082;28;19899;-42
2021/07/23 19:27:40;;;;;;;;;;;29.80;88.20;;;;;;5107585;28;19907;-44
2021/07/23 19:30:14;;;;;;;;;;;29.80;88.10;;;;;;5125765;28;19934;-43
2021/07/23 19:32:41;;;;;;;;;;;29.80;87.70;;;;;;5126138;28;20002;-50
2021/07/23 19:35:08;;;;;;;;;;;29.80;87.50;;;;;;5125845;28;19900;-49
2021/07/23 19:37:38;;;;;;;;;;;29.90;87.70;;;;;;5125124;28;20142;-46
2021/07/23 19:40:06;;;;;;;;;;;29.90;88.00;;;;;;5125540;28;20252;-43
2021/07/23 19:42:35;;;;;;;;;;;29.90;87.60;;;;;;5107565;28;19911;-44
2021/07/23 19:45:05;;;;;;;;;;;29.90;88.30;;;;;;5125442;28;19945;-40
2021/07/23 19:47:34;;;;;;;;;;;29.90;88.10;;;;;;5125459;28;19912;-46
2021/07/23 19:50:03;;;;;;;;;;;30.00;87.60;;;;;;5125653;28;20183;-42
2021/07/23 19:52:34;;;;;;;;;;;29.90;86.60;;;;;;5107279;28;19912;-44
2021/07/23 19:55:11;;;;;;;;;;;29.90;86.70;;;;;;5125438;28;19900;-41
2021/07/23 19:57:56;;;;;;;;;;;29.90;86.10;;;;;;5125507;28;20240;-44
2021/07/23 20:00:25;;;;;;;;;;;29.90;86.90;;;;;;5125428;28;19899;-44
2021/07/23 20:02:55;;;;;;;;;;;29.90;87.30;;;;;;5125053;28;20246;-43
2021/07/23 20:05:30;;;;;;;;;;;29.90;87.20;;;;;;5124841;28;19899;-41
2021/07/23 20:08:09;;;;;;;;;;;29.90;86.60;;;;;;5125346;28;20088;-43
2021/07/23 20:10:52;;;;;;;;;;;29.90;85.80;;;;;;5124918;28;19914;-43
2021/07/23 20:13:27;;;;;;;;;;;29.90;84.00;;;;;;5125200;28;19933;-42
2021/07/23 20:16:03;;;;;;;;;;;;;;;;;;;;;
2021/07/23 20:18:32;;;;;;;;;;;30.00;83.90;;;;;;5116802;28;20222;-47
2021/07/23 20:21:02;;;;;;;;;;;30.10;84.80;;;;;;5124792;28;19935;-43
2021/07/23 20:23:38;;;;;;;;;;;;;;;;;;;;;
2021/07/23 20:26:14;;;;;;;;;;;;;;;;;;;;;
2021/07/23 20:28:50;;;;;;;;;;;30.10;85.20;;;;;;5119994;28;19935;-44
2021/07/23 20:31:17;;;;;;;;;;;30.10;85.00;;;;;;5124879;28;19914;-42
2021/07/23 20:33:43;;;;;;;;;;;30.00;85.40;;;;;;5124710;28;19907;-42
2021/07/23 20:36:13;;;;;;;;;;;30.00;85.80;;;;;;5124504;28;19938;-42
2021/07/23 20:42:04;;;;;;;;;;;30.00;86.00;;;;;;5125063;28;19914;-40
2021/07/23 20:44:30;;;;;;;;;;;30.00;85.50;;;;;;5124614;28;19940;-45
2021/07/23 20:46:57;;;;;;;;;;;30.00;86.00;;;;;;5124960;28;19915;-50
2021/07/23 20:49:24;;;;;;;;;;;30.00;86.50;;;;;;5124580;28;19899;-44
2021/07/23 20:51:50;;;;;;;;;;;30.00;87.00;;;;;;5124671;28;19908;-45
2021/07/23 20:54:16;;;;;;;;;;;29.90;87.10;;;;;;5106147;28;19931;-49
2021/07/23 20:56:49;;;;;;;;;;;29.90;87.20;;;;;;5125692;28;19911;-47
2021/07/23 20:59:16;;;;;;;;;;;29.90;87.50;;;;;;5124764;28;19941;-47
2021/07/23 21:01:43;;;;;;;;;;;29.90;87.80;;;;;;5124706;28;19945;-43
2021/07/23 21:04:09;;;;;;;;;;;29.90;88.10;;;;;;5124321;28;19900;-49
2021/07/23 21:06:35;;;;;;;;;;;29.80;88.30;;;;;;5124639;28;19914;-47
2021/07/23 21:09:02;;;;;;;;;;;29.80;88.60;;;;;;5124586;28;19900;-52
2021/07/23 21:11:30;;;;;;;;;;;29.80;88.70;;;;;;5124790;28;19908;-52
2021/07/23 21:13:57;;;;;;;;;;;29.80;88.90;;;;;;5124597;28;19899;-52
2021/07/23 21:16:23;;;;;;;;;;;29.70;88.90;;;;;;5124345;28;19915;-53
2021/07/23 21:18:52;;;;;;;;;;;29.70;89.20;;;;;;5124307;28;19982;-53
2021/07/23 21:21:18;;;;;;;;;;;29.70;89.30;;;;;;5124526;28;19944;-53
2021/07/23 21:23:44;;;;;;;;;;;29.70;89.30;;;;;;5126429;28;19904;-53
2021/07/23 21:26:11;;;;;;;;;;;29.70;89.60;;;;;;5128219;28;19970;-49
2021/07/23 21:28:37;;;;;;;;;;;29.70;89.50;;;;;;5128226;28;19900;-49
2021/07/23 21:31:03;;;;;;;;;;;29.70;89.70;;;;;;5128263;28;19976;-49
2021/07/23 21:33:29;;;;;;;;;;;29.70;90.00;;;;;;5128087;28;19900;-52
2021/07/23 21:35:58;;;;;;;;;;;29.70;90.10;;;;;;5127960;28;19907;-43
2021/07/23 21:38:24;;;;;;;;;;;29.70;90.10;;;;;;5128205;28;19903;-43
2021/07/23 21:40:56;;;;;;;;;;;29.70;90.20;;;;;;5127906;28;19921;-44
2021/07/23 21:43:23;;;;;;;;;;;29.70;90.10;;;;;;5127898;28;20237;-43
2021/07/23 21:45:49;;;;;;;;;;;29.70;90.20;;;;;;5127875;28;19900;-46
2021/07/23 21:48:16;;;;;;;;;;;29.70;90.30;;;;;;5127190;28;19900;-39
2021/07/23 21:50:42;;;;;;;;;;;29.70;90.30;;;;;;5123812;28;19900;-37
2021/07/23 21:53:09;;;;;;;;;;;29.70;90.40;;;;;;5127203;28;19900;-39
2021/07/23 21:55:35;;;;;;;;;;;29.70;90.70;;;;;;5127030;28;19907;-39
2021/07/23 21:58:01;;;;;;;;;;;29.60;90.70;;;;;;5127477;28;19986;-42
2021/07/23 22:00:27;;;;;;;;;;;29.60;90.80;;;;;;5127382;28;19962;-39
2021/07/23 22:02:53;;;;;;;;;;;29.60;90.80;;;;;;5108980;28;20001;-41
2021/07/23 22:05:20;;;;;;;;;;;29.60;90.80;;;;;;5127083;28;19903;-40
2021/07/23 22:07:46;;;;;;;;;;;29.60;90.90;;;;;;5127734;28;19915;-41
2021/07/23 22:10:13;;;;;;;;;;;29.60;90.80;;;;;;5113826;28;19907;-52
2021/07/23 22:12:39;;;;;;;;;;;29.60;91.00;;;;;;5107301;28;19947;-44
2021/07/23 22:15:06;;;;;;;;;;;29.60;90.80;;;;;;5118683;28;19937;-39
2021/07/23 22:17:32;;;;;;;;;;;29.60;90.80;;;;;;5127214;28;20175;-39
2021/07/23 22:20:00;;;;;;;;;;;29.60;91.00;;;;;;5127305;28;19908;-39
2021/07/23 22:22:26;;;;;;;;;;;29.50;91.00;;;;;;5127795;28;19929;-38
2021/07/23 22:24:54;;;;;;;;;;;29.40;91.00;;;;;;5126953;28;20207;-38
2021/07/23 22:27:20;;;;;;;;;;;29.40;91.10;;;;;;5127292;28;19949;-38
2021/07/23 22:29:46;;;;;;;;;;;29.40;91.10;;;;;;5126549;28;19907;-37
2021/07/23 22:32:13;;;;;;;;;;;29.40;91.10;;;;;;5127139;28;19907;-38
2021/07/23 22:34:39;;;;;;;;;;;29.40;91.10;;;;;;5126632;28;19899;-38
2021/07/23 22:37:06;;;;;;;;;;;29.30;91.10;;;;;;5127012;28;19916;-39
2021/07/23 22:39:32;;;;;;;;;;;29.30;91.10;;;;;;5108710;28;20124;-37
2021/07/23 22:41:59;;;;;;;;;;;29.30;91.00;;;;;;5127102;28;19954;-37
2021/07/23 22:44:25;;;;;;;;;;;29.30;91.30;;;;;;5126656;28;19906;-38
2021/07/23 22:46:51;;;;;;;;;;;29.30;91.20;;;;;;5123746;28;19915;-37
2021/07/23 22:49:17;;;;;;;;;;;29.20;91.30;;;;;;5126130;28;19914;-48
2021/07/23 22:51:43;;;;;;;;;;;29.20;91.50;;;;;;5108529;28;19908;-47
2021/07/23 22:54:10;;;;;;;;;;;29.10;91.50;;;;;;5126446;28;19992;-39
2021/07/23 22:56:36;;;;;;;;;;;29.10;91.70;;;;;;5108265;28;19958;-38
2021/07/23 22:59:02;;;;;;;;;;;29.10;91.60;;;;;;5123229;28;19911;-37
2021/07/23 23:01:28;;;;;;;;;;;29.10;91.60;;;;;;5110836;28;19908;-45
2021/07/23 23:03:55;;;;;;;;;;;29.00;91.80;;;;;;5111450;28;19915;-45
2021/07/23 23:06:21;;;;;;;;;;;29.00;91.90;;;;;;5123427;28;19923;-41
2021/07/23 23:08:47;;;;;;;;;;;29.00;92.00;;;;;;5126293;28;19900;-37
2021/07/23 23:11:13;;;;;;;;;;;29.00;92.00;;;;;;5125537;28;19920;-38
2021/07/23 23:13:41;;;;;;;;;;;29.00;92.00;;;;;;5125979;28;19900;-37
2021/07/23 23:16:08;;;;;;;;;;;28.90;91.90;;;;;;5116980;28;20125;-39
2021/07/23 23:18:34;;;;;;;;;;;28.90;92.00;;;;;;5096729;28;19906;-38
2021/07/23 23:21:05;;;;;;;;;;;28.80;92.20;;;;;;5098104;28;19908;-42
2021/07/23 23:23:31;;;;;;;;;;;28.80;92.30;;;;;;5115711;28;19908;-42
2021/07/23 23:26:04;;;;;;;;;;;28.80;92.20;;;;;;5126088;28;20175;-40
2021/07/23 23:28:30;;;;;;;;;;;28.80;92.30;;;;;;5107814;28;19938;-37
2021/07/23 23:30:56;;;;;;;;;;;28.70;92.40;;;;;;5107725;28;20188;-41
2021/07/23 23:33:23;;;;;;;;;;;28.70;92.70;;;;;;5125839;28;20184;-42
2021/07/23 23:35:52;;;;;;;;;;;28.70;92.70;;;;;;5125593;28;19914;-40
2021/07/23 23:38:18;;;;;;;;;;;28.80;92.80;;;;;;5125724;28;19903;-41
2021/07/23 23:40:45;;;;;;;;;;;28.80;92.90;;;;;;5125549;28;19900;-43
2021/07/23 23:43:12;;;;;;;;;;;28.80;92.90;;;;;;5125426;28;19906;-38
2021/07/23 23:45:38;;;;;;;;;;;28.80;93.20;;;;;;5124291;28;19968;-41
2021/07/23 23:48:04;;;;;;;;;;;28.70;93.00;;;;;;5124100;28;20005;-44
2021/07/23 23:50:31;;;;;;;;;;;28.70;93.10;;;;;;5124769;28;19903;-39
2021/07/23 23:53:00;;;;;;;;;;;28.70;93.10;;;;;;5124844;28;19908;-38
2021/07/23 23:55:31;;;;;;;;;;;28.70;93.10;;;;;;5125335;28;19967;-37
2021/07/23 23:57:58;;;;;;;;;;;28.70;93.10;;;;;;5125413;28;20205;-45
